createdAt,value
2019-05-07T00:02:08.906Z,99.90
2019-05-07T00:04:39.460Z,99.90
2019-05-07T00:07:10.159Z,99.90
2019-05-07T00:09:40.366Z,99.90
2019-05-07T00:12:09.153Z,99.90
2019-05-07T00:14:42.709Z,99.90
2019-05-07T00:17:09.372Z,99.90
2019-05-07T00:19:38.965Z,99.90
2019-05-07T00:22:06.253Z,99.90
2019-05-07T00:24:33.339Z,99.90
2019-05-07T00:27:04.216Z,99.90
2019-05-07T00:29:32.146Z,99.90
2019-05-07T00:32:03.935Z,99.90
2019-05-07T00:34:42.441Z,99.90
2019-05-07T00:37:23.010Z,99.90
2019-05-07T00:40:12.904Z,99.90
2019-05-07T00:42:57.786Z,99.90
2019-05-07T00:45:32.588Z,99.90
2019-05-07T00:48:04.098Z,99.90
2019-05-07T00:50:33.222Z,99.90
2019-05-07T00:53:13.039Z,99.90
2019-05-07T00:55:42.163Z,99.90
2019-05-07T00:58:09.342Z,99.90
2019-05-07T01:00:37.134Z,99.90
2019-05-07T01:03:07.873Z,99.90
2019-05-07T01:05:35.095Z,99.90
2019-05-07T01:08:06.460Z,99.90
2019-05-07T01:10:33.570Z,99.90
2019-05-07T01:13:02.572Z,99.90
2019-05-07T01:15:34.629Z,99.90
2019-05-07T01:18:13.843Z,99.90
2019-05-07T01:20:53.430Z,99.90
2019-05-07T01:23:46.921Z,99.90
2019-05-07T01:26:15.542Z,99.90
2019-05-07T01:28:59.645Z,99.90
2019-05-07T01:31:37.694Z,99.90
2019-05-07T01:37:15.696Z,99.90
2019-05-07T01:39:53.034Z,99.90
2019-05-07T01:42:22.204Z,99.90
2019-05-07T01:45:02.280Z,99.90
2019-05-07T01:47:39.114Z,99.90
2019-05-07T01:50:09.120Z,99.90
2019-05-07T01:52:43.742Z,99.90
2019-05-07T01:55:22.662Z,99.90
2019-05-07T01:57:51.703Z,99.90
2019-05-07T02:00:25.974Z,99.90
2019-05-07T02:03:23.068Z,99.90
2019-05-07T02:06:09.447Z,99.90
2019-05-07T02:09:02.364Z,99.90
2019-05-07T02:11:43.152Z,99.90
2019-05-07T02:17:14.326Z,99.90
2019-05-07T02:19:48.467Z,99.90
2019-05-07T02:22:19.180Z,99.90
2019-05-07T02:24:52.388Z,99.90
2019-05-07T02:27:32.841Z,99.90
2019-05-07T02:30:04.217Z,99.90
2019-05-07T02:32:33.924Z,99.90
2019-05-07T02:35:03.956Z,99.90
2019-05-07T02:37:51.393Z,99.90
2019-05-07T02:40:43.461Z,99.90
2019-05-07T02:43:17.570Z,99.90
2019-05-07T02:46:27.527Z,99.90
2019-05-07T02:49:07.211Z,99.90
2019-05-07T02:51:53.159Z,99.90
2019-05-07T02:54:44.133Z,99.90
2019-05-07T02:57:17.137Z,99.90
2019-05-07T02:59:47.420Z,99.90
2019-05-07T03:02:23.854Z,99.90
2019-05-07T03:04:54.042Z,99.90
2019-05-07T03:07:25.035Z,99.90
2019-05-07T03:09:57.297Z,99.90
2019-05-07T03:12:33.379Z,99.90
2019-05-07T03:15:04.531Z,99.90
2019-05-07T03:17:57.583Z,99.90
2019-05-07T03:20:38.627Z,99.90
2019-05-07T03:23:13.302Z,99.90
2019-05-07T03:26:07.626Z,99.90
2019-05-07T03:28:53.186Z,99.90
2019-05-07T03:31:36.845Z,99.90
2019-05-07T03:34:16.467Z,99.90
2019-05-07T03:36:48.385Z,99.90
2019-05-07T03:39:25.424Z,99.90
2019-05-07T03:42:03.143Z,99.90
2019-05-07T03:44:53.479Z,99.90
2019-05-07T03:47:35.683Z,99.90
2019-05-07T03:50:06.253Z,99.90
2019-05-07T03:52:37.611Z,99.90
2019-05-07T03:55:06.510Z,99.90
2019-05-07T03:57:33.734Z,99.90
2019-05-07T04:00:07.382Z,99.90
2019-05-07T04:02:34.905Z,99.90
2019-05-07T04:05:13.656Z,99.90
2019-05-07T04:07:45.245Z,99.90
2019-05-07T04:10:15.150Z,99.90
2019-05-07T04:12:53.287Z,99.90
2019-05-07T04:15:23.255Z,99.90
2019-05-07T04:17:55.923Z,99.90
2019-05-07T04:20:23.933Z,99.90
2019-05-07T04:22:59.064Z,99.90
2019-05-07T04:25:58.753Z,99.90
2019-05-07T04:29:05.736Z,99.90
2019-05-07T04:31:42.975Z,99.90
2019-05-07T04:34:19.295Z,99.90
2019-05-07T04:36:53.163Z,99.90
2019-05-07T04:39:19.367Z,99.90
2019-05-07T04:41:53.368Z,99.90
2019-05-07T04:44:23.565Z,99.90
2019-05-07T04:46:56.319Z,99.90
2019-05-07T04:49:24.038Z,99.90
2019-05-07T04:52:03.879Z,99.90
2019-05-07T04:54:43.655Z,99.90
2019-05-07T04:57:26.367Z,99.90
2019-05-07T04:59:57.423Z,99.90
2019-05-07T05:02:54.542Z,99.90
2019-05-07T05:05:23.537Z,99.90
2019-05-07T05:07:56.542Z,99.90
2019-05-07T05:10:24.546Z,99.90
2019-05-07T05:12:53.623Z,99.90
2019-05-07T05:15:25.770Z,99.90
2019-05-07T05:17:54.042Z,99.90
2019-05-07T05:20:30.366Z,99.90
2019-05-07T05:23:08.826Z,99.90
2019-05-07T05:25:39.661Z,99.90
2019-05-07T05:28:06.626Z,99.90
2019-05-07T05:30:43.923Z,99.90
2019-05-07T05:33:12.604Z,99.90
2019-05-07T05:35:39.871Z,99.90
2019-05-07T05:38:33.871Z,99.90
2019-05-07T05:41:02.745Z,99.90
2019-05-07T05:43:55.911Z,99.90
2019-05-07T05:46:24.052Z,99.90
2019-05-07T05:48:51.977Z,99.90
2019-05-07T05:51:37.130Z,99.90
2019-05-07T05:54:12.758Z,99.90
2019-05-07T05:56:46.232Z,99.90
2019-05-07T05:59:48.102Z,99.90
2019-05-07T06:02:39.995Z,99.90
2019-05-07T06:05:42.039Z,99.90
2019-05-07T06:08:33.811Z,99.90
2019-05-07T06:11:32.781Z,99.90
2019-05-07T06:14:12.941Z,99.90
2019-05-07T06:16:56.633Z,99.90
2019-05-07T06:19:36.726Z,99.90
2019-05-07T06:22:26.634Z,99.90
2019-05-07T06:24:57.006Z,99.90
2019-05-07T06:27:23.977Z,99.90
2019-05-07T06:29:52.429Z,99.90
2019-05-07T06:32:22.970Z,99.90
2019-05-07T06:34:52.312Z,99.90
2019-05-07T06:37:22.832Z,99.90
2019-05-07T06:40:11.949Z,99.90
2019-05-07T06:43:08.522Z,99.90
2019-05-07T06:45:42.210Z,99.90
2019-05-07T06:48:09.686Z,99.90
2019-05-07T06:50:43.246Z,99.90
2019-05-07T06:53:11.885Z,99.90
2019-05-07T06:55:39.971Z,99.90
2019-05-07T06:58:08.582Z,99.90
2019-05-07T07:00:58.365Z,99.90
2019-05-07T07:03:37.411Z,99.90
2019-05-07T07:06:23.024Z,99.90
2019-05-07T07:08:57.544Z,99.90
2019-05-07T07:11:49.678Z,99.90
2019-05-07T07:14:19.697Z,99.90
2019-05-07T07:16:48.558Z,99.90
2019-05-07T07:19:16.587Z,99.90
2019-05-07T07:21:43.568Z,99.90
2019-05-07T07:24:16.910Z,99.90
2019-05-07T07:26:44.191Z,99.90
2019-05-07T07:29:12.979Z,99.90
2019-05-07T07:31:53.845Z,99.90
2019-05-07T07:34:22.955Z,99.90
2019-05-07T07:37:09.792Z,99.90
2019-05-07T07:39:34.181Z,99.90
2019-05-07T07:42:07.686Z,99.90
2019-05-07T07:44:37.546Z,99.90
2019-05-07T07:47:04.933Z,99.90
2019-05-07T07:49:32.964Z,99.90
2019-05-07T07:52:02.996Z,99.90
2019-05-07T07:54:37.982Z,99.90
2019-05-07T08:00:23.270Z,99.90
2019-05-07T08:03:02.206Z,99.90
2019-05-07T08:05:29.022Z,99.90
2019-05-07T08:07:56.187Z,99.90
2019-05-07T08:17:38.892Z,99.90
2019-05-07T08:20:06.796Z,99.90
2019-05-07T08:22:33.735Z,99.90
2019-05-07T08:25:03.182Z,98.50
2019-05-07T08:27:35.978Z,97.50
2019-05-07T08:30:04.776Z,97.50
2019-05-07T08:32:54.565Z,97.90
2019-05-07T08:35:27.971Z,95.80
2019-05-07T08:37:56.300Z,96.40
2019-05-07T08:40:23.613Z,95.80
2019-05-07T08:42:52.425Z,95.70
2019-05-07T08:45:52.468Z,96.60
2019-05-07T08:48:27.933Z,97.10
2019-05-07T08:50:57.715Z,94.30
2019-05-07T08:53:25.373Z,95.70
2019-05-07T08:55:53.216Z,94.90
2019-05-07T08:58:22.369Z,95.00
2019-05-07T09:00:54.784Z,94.50
2019-05-07T09:03:42.892Z,94.00
2019-05-07T09:06:13.526Z,92.40
2019-05-07T09:08:44.041Z,91.10
2019-05-07T09:11:13.995Z,91.90
2019-05-07T09:13:42.050Z,92.40
2019-05-07T09:16:09.588Z,90.90
2019-05-07T09:18:36.593Z,87.70
2019-05-07T09:21:04.070Z,83.60
2019-05-07T09:23:31.856Z,78.20
2019-05-07T09:25:59.220Z,75.10
2019-05-07T09:28:33.333Z,78.90
2019-05-07T09:31:28.914Z,84.00
2019-05-07T09:33:58.438Z,82.20
2019-05-07T09:36:34.262Z,77.70
2019-05-07T09:39:12.108Z,76.70
2019-05-07T09:41:39.357Z,77.20
2019-05-07T09:44:06.276Z,77.60
2019-05-07T09:46:33.896Z,77.80
2019-05-07T09:49:02.918Z,75.50
2019-05-07T09:51:37.777Z,73.30
2019-05-07T09:54:04.930Z,69.80
2019-05-07T09:56:32.253Z,67.00
2019-05-07T09:59:05.951Z,62.60
2019-05-07T10:01:33.822Z,59.70
2019-05-07T10:04:03.510Z,58.70
2019-05-07T10:06:32.165Z,57.50
2019-05-07T10:09:06.832Z,60.10
2019-05-07T10:12:12.187Z,55.80
2019-05-07T10:14:43.467Z,53.60
2019-05-07T10:17:32.875Z,57.60
2019-05-07T10:20:17.883Z,51.40
2019-05-07T10:22:34.108Z,54.90
2019-05-07T10:25:04.516Z,57.20
2019-05-07T10:27:32.568Z,58.10
2019-05-07T10:30:05.946Z,57.50
2019-05-07T10:32:34.679Z,55.10
2019-05-07T10:35:05.004Z,54.20
2019-05-07T10:37:32.668Z,54.60
2019-05-07T10:40:03.137Z,57.30
2019-05-07T10:42:32.337Z,54.30
2019-05-07T10:45:25.556Z,52.80
2019-05-07T10:48:07.114Z,57.70
2019-05-07T10:50:39.182Z,58.10
2019-05-07T10:53:08.206Z,54.90
2019-05-07T10:55:37.833Z,56.00
2019-05-07T10:58:09.714Z,56.00
2019-05-07T11:00:37.301Z,56.90
2019-05-07T11:03:07.462Z,51.60
2019-05-07T11:05:35.546Z,50.40
2019-05-07T11:08:03.508Z,52.50
2019-05-07T11:10:32.875Z,51.20
2019-05-07T11:13:02.115Z,51.60
2019-05-07T11:15:32.711Z,50.80
2019-05-07T11:18:14.211Z,54.10
2019-05-07T11:20:49.746Z,52.10
2019-05-07T11:23:12.217Z,45.10
2019-05-07T11:25:39.179Z,47.20
2019-05-07T11:28:06.306Z,48.90
2019-05-07T11:30:36.053Z,47.30
2019-05-07T11:33:04.130Z,48.60
2019-05-07T11:35:33.304Z,48.10
2019-05-07T11:38:10.990Z,48.70
2019-05-07T11:40:34.838Z,44.90
2019-05-07T11:43:23.581Z,48.30
2019-05-07T11:46:14.531Z,45.10
2019-05-07T11:48:49.076Z,43.40
2019-05-07T11:51:25.898Z,42.10
2019-05-07T11:54:07.718Z,44.20
2019-05-07T11:56:37.348Z,45.00
2019-05-07T11:59:04.428Z,41.80
2019-05-07T12:01:46.779Z,40.90
2019-05-07T12:04:05.403Z,40.60
2019-05-07T12:06:37.733Z,44.10
2019-05-07T12:09:06.860Z,40.70
2019-05-07T12:11:36.726Z,40.00
2019-05-07T12:14:04.682Z,39.20
2019-05-07T12:16:32.190Z,39.10
2019-05-07T12:19:02.184Z,39.50
2019-05-07T12:21:30.316Z,42.20
2019-05-07T12:24:01.971Z,40.10
2019-05-07T12:26:30.520Z,41.80
2019-05-07T12:29:01.465Z,42.10
2019-05-07T12:32:06.013Z,41.10
2019-05-07T12:34:46.388Z,39.40
2019-05-07T12:37:13.863Z,42.70
2019-05-07T12:39:42.387Z,40.80
2019-05-07T12:42:12.059Z,41.60
2019-05-07T12:44:42.501Z,40.70
2019-05-07T12:47:12.071Z,42.50
2019-05-07T12:49:43.509Z,43.30
2019-05-07T12:52:35.556Z,43.20
2019-05-07T12:55:09.488Z,41.20
2019-05-07T12:57:36.562Z,42.30
2019-05-07T13:00:23.457Z,42.30
2019-05-07T13:03:16.875Z,41.90
2019-05-07T13:05:47.827Z,42.30
2019-05-07T13:08:15.916Z,42.30
2019-05-07T13:10:45.367Z,41.80
2019-05-07T13:13:12.894Z,42.50
2019-05-07T13:15:44.139Z,42.00
2019-05-07T13:18:12.693Z,42.90
2019-05-07T13:20:41.943Z,41.90
2019-05-07T13:23:11.826Z,42.00
2019-05-07T13:25:38.873Z,43.00
2019-05-07T13:28:08.691Z,40.90
2019-05-07T13:30:35.967Z,41.80
2019-05-07T13:33:08.497Z,42.00
2019-05-07T13:35:36.457Z,41.20
2019-05-07T13:38:47.182Z,43.60
2019-05-07T13:41:34.441Z,41.50
2019-05-07T13:44:39.308Z,41.60
2019-05-07T13:47:25.421Z,43.90
2019-05-07T13:49:55.655Z,42.70
2019-05-07T13:52:23.925Z,41.70
2019-05-07T13:54:52.667Z,43.00
2019-05-07T13:57:20.153Z,40.80
2019-05-07T13:59:49.432Z,41.20
2019-05-07T14:02:17.706Z,40.80
2019-05-07T14:04:52.618Z,42.00
2019-05-07T14:07:21.702Z,41.50
2019-05-07T14:09:52.911Z,41.90
2019-05-07T14:12:22.903Z,42.20
2019-05-07T14:14:53.862Z,42.10
2019-05-07T14:17:21.898Z,42.20
2019-05-07T14:19:54.589Z,44.50
2019-05-07T14:22:22.720Z,45.40
2019-05-07T14:24:53.732Z,44.50
2019-05-07T14:27:22.413Z,45.00
2019-05-07T14:29:52.296Z,43.60
2019-05-07T14:32:45.553Z,43.70
2019-05-07T14:35:33.913Z,42.60
2019-05-07T14:38:08.305Z,41.60
2019-05-07T14:40:37.825Z,42.70
2019-05-07T14:43:12.650Z,40.60
2019-05-07T14:45:42.088Z,42.60
2019-05-07T14:48:12.133Z,42.70
2019-05-07T14:50:41.946Z,43.60
2019-05-07T14:53:11.952Z,44.30
2019-05-07T14:55:41.836Z,44.20
2019-05-07T14:58:09.649Z,43.40
2019-05-07T15:00:39.236Z,44.70
2019-05-07T15:03:06.653Z,46.20
2019-05-07T15:05:39.164Z,45.60
2019-05-07T15:08:11.042Z,44.60
2019-05-07T15:10:41.714Z,43.00
2019-05-07T15:13:09.324Z,42.90
2019-05-07T15:15:39.853Z,41.60
2019-05-07T15:18:22.761Z,43.30
2019-05-07T15:20:52.400Z,43.50
2019-05-07T15:23:33.083Z,42.70
2019-05-07T15:26:04.543Z,43.40
2019-05-07T15:28:32.298Z,43.80
2019-05-07T15:31:12.230Z,43.70
2019-05-07T15:33:42.052Z,44.50
2019-05-07T15:36:11.823Z,43.10
2019-05-07T15:38:43.055Z,44.70
2019-05-07T15:41:10.349Z,46.30
2019-05-07T15:43:37.691Z,46.70
2019-05-07T15:46:12.152Z,44.00
2019-05-07T15:48:44.943Z,43.40
2019-05-07T15:51:12.362Z,44.00
2019-05-07T15:53:54.403Z,42.10
2019-05-07T15:56:25.892Z,43.80
2019-05-07T15:58:53.672Z,44.70
2019-05-07T16:01:25.800Z,44.80
2019-05-07T16:03:55.047Z,42.50
2019-05-07T16:06:27.962Z,42.80
2019-05-07T16:08:59.374Z,42.20
2019-05-07T16:11:28.637Z,41.60
2019-05-07T16:14:32.143Z,42.40
2019-05-07T16:17:06.721Z,43.70
2019-05-07T16:19:34.137Z,44.20
2019-05-07T16:22:07.164Z,43.70
2019-05-07T16:24:35.135Z,45.40
2019-05-07T16:27:05.564Z,43.60
2019-05-07T16:29:35.831Z,46.50
2019-05-07T16:32:07.515Z,49.60
2019-05-07T16:34:36.176Z,50.10
2019-05-07T16:37:07.178Z,44.90
2019-05-07T16:39:33.333Z,46.20
2019-05-07T16:42:01.853Z,45.20
2019-05-07T16:44:33.117Z,44.70
2019-05-07T16:47:02.669Z,44.30
2019-05-07T16:49:33.039Z,46.20
2019-05-07T16:52:01.833Z,48.90
2019-05-07T16:54:31.359Z,46.40
2019-05-07T16:57:36.322Z,47.50
2019-05-07T17:00:04.790Z,46.30
2019-05-07T17:02:38.908Z,50.10
2019-05-07T17:05:13.462Z,52.00
2019-05-07T17:07:51.996Z,51.30
2019-05-07T17:10:19.116Z,54.20
2019-05-07T17:12:47.317Z,53.10
2019-05-07T17:15:14.902Z,53.70
2019-05-07T17:17:42.790Z,52.60
2019-05-07T17:20:12.582Z,53.10
2019-05-07T17:22:39.554Z,54.10
2019-05-07T17:25:26.283Z,54.50
2019-05-07T17:27:54.723Z,56.40
2019-05-07T17:30:22.255Z,55.10
2019-05-07T17:32:52.587Z,52.60
2019-05-07T17:35:22.294Z,54.20
2019-05-07T17:38:06.099Z,56.30
2019-05-07T17:40:22.592Z,55.40
2019-05-07T17:42:52.346Z,52.30
2019-05-07T17:45:22.768Z,54.30
2019-05-07T17:47:52.336Z,50.20
2019-05-07T17:50:23.513Z,53.10
2019-05-07T17:52:53.317Z,54.50
2019-05-07T17:55:22.301Z,54.20
2019-05-07T17:57:49.453Z,55.50
2019-05-07T18:00:19.105Z,57.60
2019-05-07T18:03:24.008Z,56.80
2019-05-07T18:05:51.950Z,55.80
2019-05-07T18:08:21.733Z,57.70
2019-05-07T18:10:49.003Z,59.00
2019-05-07T18:13:18.407Z,58.90
2019-05-07T18:15:46.190Z,58.40
2019-05-07T18:18:13.561Z,58.60
2019-05-07T18:20:42.454Z,60.40
2019-05-07T18:23:16.291Z,60.20
2019-05-07T18:25:42.886Z,60.60
2019-05-07T18:28:12.271Z,61.70
2019-05-07T18:30:42.797Z,62.60
2019-05-07T18:33:33.575Z,61.70
2019-05-07T18:36:03.135Z,62.30
2019-05-07T18:38:32.740Z,63.30
2019-05-07T18:41:02.607Z,63.20
2019-05-07T18:43:32.986Z,63.10
2019-05-07T18:46:06.285Z,62.70
2019-05-07T18:48:33.401Z,62.60
2019-05-07T18:51:03.318Z,63.10
2019-05-07T18:53:31.969Z,62.90
2019-05-07T18:56:04.755Z,60.20
2019-05-07T18:58:32.762Z,61.70
2019-05-07T19:01:04.481Z,61.70
2019-05-07T19:03:32.461Z,63.00
2019-05-07T19:06:05.494Z,64.40
2019-05-07T19:08:35.464Z,64.50
2019-05-07T19:11:07.281Z,66.90
2019-05-07T19:13:35.561Z,67.30
2019-05-07T19:16:12.469Z,69.30
2019-05-07T19:18:39.850Z,69.80
2019-05-07T19:21:09.424Z,71.80
2019-05-07T19:23:36.461Z,73.40
2019-05-07T19:26:08.432Z,74.40
2019-05-07T19:28:35.867Z,75.60
2019-05-07T19:31:05.221Z,76.70
2019-05-07T19:33:33.634Z,76.90
2019-05-07T19:36:01.563Z,78.00
2019-05-07T19:38:32.191Z,79.00
2019-05-07T19:41:02.044Z,80.10
2019-05-07T19:43:32.888Z,81.00
2019-05-07T19:46:02.738Z,81.10
2019-05-07T19:48:32.328Z,83.00
2019-05-07T19:51:02.904Z,83.40
2019-05-07T19:53:33.188Z,82.90
2019-05-07T19:56:32.433Z,83.10
2019-05-07T19:59:00.481Z,84.70
2019-05-07T20:01:42.602Z,84.50
2019-05-07T20:04:13.331Z,84.80
2019-05-07T20:06:42.721Z,85.70
2019-05-07T20:09:15.650Z,87.10
2019-05-07T20:11:45.127Z,87.30
2019-05-07T20:14:14.685Z,88.70
2019-05-07T20:16:44.204Z,87.80
2019-05-07T20:19:17.313Z,89.40
2019-05-07T20:21:45.280Z,89.90
2019-05-07T20:24:15.468Z,90.00
2019-05-07T20:26:43.230Z,90.30
2019-05-07T20:29:15.168Z,91.10
2019-05-07T20:31:47.061Z,91.10
2019-05-07T20:34:16.921Z,90.10
2019-05-07T20:36:45.484Z,90.40
2019-05-07T20:39:16.925Z,90.10
2019-05-07T20:41:47.313Z,88.50
2019-05-07T20:44:16.752Z,89.30
2019-05-07T20:46:44.336Z,91.00
2019-05-07T20:49:14.268Z,91.30
2019-05-07T20:51:41.955Z,91.60
2019-05-07T20:54:16.760Z,92.80
2019-05-07T20:56:51.870Z,93.00
2019-05-07T20:59:21.949Z,93.30
2019-05-07T21:01:49.451Z,92.70
2019-05-07T21:04:18.793Z,92.50
2019-05-07T21:06:46.075Z,93.20
2019-05-07T21:09:13.787Z,93.70
2019-05-07T21:11:43.020Z,94.50
2019-05-07T21:14:12.060Z,94.50
2019-05-07T21:16:42.505Z,94.50
2019-05-07T21:19:09.751Z,94.70
2019-05-07T21:21:42.268Z,95.20
2019-05-07T21:24:09.900Z,95.00
2019-05-07T21:26:42.610Z,95.30
2019-05-07T21:29:09.777Z,95.10
2019-05-07T21:31:39.549Z,95.30
2019-05-07T21:34:07.537Z,95.50
2019-05-07T21:36:34.781Z,95.30
2019-05-07T21:39:05.271Z,95.10
2019-05-07T21:41:33.530Z,94.10
2019-05-07T21:44:02.579Z,94.30
2019-05-07T21:46:30.061Z,93.80
2019-05-07T21:48:57.051Z,93.60
2019-05-07T21:51:25.188Z,93.10
2019-05-07T21:54:30.388Z,93.30
2019-05-07T21:57:15.638Z,93.20
2019-05-07T21:59:45.502Z,93.00
2019-05-07T22:02:17.153Z,93.20
2019-05-07T22:04:46.792Z,93.80
2019-05-07T22:07:13.820Z,94.40
2019-05-07T22:09:45.827Z,94.10
2019-05-07T22:12:13.372Z,93.60
2019-05-07T22:14:40.570Z,93.70
2019-05-07T22:17:09.048Z,93.70
2019-05-07T22:19:36.316Z,94.00
2019-05-07T22:22:12.391Z,94.20
2019-05-07T22:24:39.725Z,94.20
2019-05-07T22:27:09.240Z,94.80
2019-05-07T22:29:36.477Z,95.20
2019-05-07T22:32:22.437Z,96.50
2019-05-07T22:34:55.454Z,95.80
2019-05-07T22:37:27.880Z,95.80
2019-05-07T22:39:59.881Z,96.20
2019-05-07T22:42:32.585Z,97.70
2019-05-07T22:45:09.453Z,98.00
2019-05-07T22:47:37.390Z,98.50
2019-05-07T22:50:05.064Z,99.00
2019-05-07T22:52:34.783Z,99.00
2019-05-07T22:55:01.900Z,99.70
2019-05-07T22:57:54.950Z,99.80
2019-05-07T23:00:32.180Z,99.90
2019-05-07T23:03:02.666Z,99.90
2019-05-07T23:05:33.118Z,99.90
2019-05-07T23:08:02.400Z,99.90
2019-05-07T23:10:35.325Z,99.90
2019-05-07T23:13:02.499Z,99.90
2019-05-07T23:15:33.367Z,99.90
2019-05-07T23:18:04.209Z,99.90
2019-05-07T23:20:37.528Z,99.90
2019-05-07T23:23:04.476Z,99.90
2019-05-07T23:25:35.675Z,99.90
2019-05-07T23:28:05.207Z,99.90
2019-05-07T23:30:35.376Z,99.90
2019-05-07T23:33:02.669Z,99.90
2019-05-07T23:35:49.518Z,99.90
2019-05-07T23:38:17.194Z,99.90
2019-05-07T23:41:02.424Z,99.90
2019-05-07T23:43:31.274Z,99.90
2019-05-07T23:45:59.603Z,99.90
2019-05-07T23:48:26.566Z,99.90
2019-05-07T23:50:58.579Z,99.90
2019-05-07T23:53:25.958Z,99.90
2019-05-07T23:55:55.322Z,99.90
2019-05-07T23:58:42.173Z,99.90
